KTHA/THA METAR and TAF weather

Enter ICAO airport designator
Station Type Date Time Source
KTHA METAR 2018/12/19 09:15 UTC NOAA

KTHA 190915Z AUTO 00000KT 10SM CLR 01/M00 A3005 RMK A01


Station Type Date Time Source
KTHA Decoded METAR 2018/12/19 09:15 UTC NOAA

Station name not available
Dec 19, 2018 - 04:15 AM EST / 2018.12.19 0915 UTC
Wind: Calm:0
Visibility: 10 mile(s):0
Sky conditions: clear
Temperature: 33 F (1 C)
Dew Point: 32 F (0 C)
Relative Humidity: 93%
Pressure (altimeter): 30.05 in. Hg (1017 hPa)
ob: KTHA 190915Z AUTO 00000KT 10SM CLR 01/M00 A3005 RMK A01
cycle: 9

Station Type Date Time Source
KTHA TAF UTC NOAA

Error!


Example: see airport list